sensor_id;sensor_type;location;lat;lon;timestamp;temperature;humidity
44767;DHT22;30487;48.716;9.272;2024-01-06T00:00:37;6.40;99.90
44767;DHT22;30487;48.716;9.272;2024-01-06T00:03:02;6.40;99.90
44767;DHT22;30487;48.716;9.272;2024-01-06T00:05:28;6.30;99.90
44767;DHT22;30487;48.716;9.272;2024-01-06T00:07:53;6.30;99.90
44767;DHT22;30487;48.716;9.272;2024-01-06T00:10:19;6.30;99.90
44767;DHT22;30487;48.716;9.272;2024-01-06T00:12:45;6.30;99.90
44767;DHT22;30487;48.716;9.272;2024-01-06T00:15:10;6.30;99.90
44767;DHT22;30487;48.716;9.272;2024-01-06T00:17:36;6.20;99.90
44767;DHT22;30487;48.716;9.272;2024-01-06T00:20:02;6.20;99.90
44767;DHT22;30487;48.716;9.272;2024-01-06T00:22:28;6.20;99.90
44767;DHT22;30487;48.716;9.272;2024-01-06T00:24:53;6.20;99.90
44767;DHT22;30487;48.716;9.272;2024-01-06T00:27:19;6.30;99.90
44767;DHT22;30487;48.716;9.272;2024-01-06T00:29:44;6.30;99.90
44767;DHT22;30487;48.716;9.272;2024-01-06T00:32:10;6.30;99.90
44767;DHT22;30487;48.716;9.272;2024-01-06T00:34:36;6.30;99.90
44767;DHT22;30487;48.716;9.272;2024-01-06T00:37:01;6.30;99.90
44767;DHT22;30487;48.716;9.272;2024-01-06T00:39:27;6.30;99.90
44767;DHT22;30487;48.716;9.272;2024-01-06T00:41:52;6.30;99.90
44767;DHT22;30487;48.716;9.272;2024-01-06T00:44:18;6.30;99.90
44767;DHT22;30487;48.716;9.272;2024-01-06T00:46:44;6.30;99.90
44767;DHT22;30487;48.716;9.272;2024-01-06T00:49:10;6.40;99.90
44767;DHT22;30487;48.716;9.272;2024-01-06T00:51:36;6.40;99.90
44767;DHT22;30487;48.716;9.272;2024-01-06T00:54:01;6.40;99.90
44767;DHT22;30487;48.716;9.272;2024-01-06T00:56:27;6.40;99.90
44767;DHT22;30487;48.716;9.272;2024-01-06T00:58:52;6.40;99.90
44767;DHT22;30487;48.716;9.272;2024-01-06T01:01:18;6.30;99.90
44767;DHT22;30487;48.716;9.272;2024-01-06T01:03:44;6.30;99.90
44767;DHT22;30487;48.716;9.272;2024-01-06T01:06:09;6.30;99.90
44767;DHT22;30487;48.716;9.272;2024-01-06T01:08:35;6.20;99.90
44767;DHT22;30487;48.716;9.272;2024-01-06T01:11:00;6.20;99.90
44767;DHT22;30487;48.716;9.272;2024-01-06T01:13:26;6.20;99.90
44767;DHT22;30487;48.716;9.272;2024-01-06T01:15:51;6.10;99.90
44767;DHT22;30487;48.716;9.272;2024-01-06T01:18:17;6.10;99.90
44767;DHT22;30487;48.716;9.272;2024-01-06T01:20:43;6.10;99.90
44767;DHT22;30487;48.716;9.272;2024-01-06T01:23:08;6.10;99.90
44767;DHT22;30487;48.716;9.272;2024-01-06T01:25:34;6.00;99.90
44767;DHT22;30487;48.716;9.272;2024-01-06T01:27:59;6.00;99.90
44767;DHT22;30487;48.716;9.272;2024-01-06T01:30:25;6.00;99.90
44767;DHT22;30487;48.716;9.272;2024-01-06T01:32:51;5.90;99.90
44767;DHT22;30487;48.716;9.272;2024-01-06T01:35:16;5.90;99.90
44767;DHT22;30487;48.716;9.272;2024-01-06T01:37:42;5.90;99.90
44767;DHT22;30487;48.716;9.272;2024-01-06T01:40:08;5.90;99.90
44767;DHT22;30487;48.716;9.272;2024-01-06T01:42:34;5.90;99.90
44767;DHT22;30487;48.716;9.272;2024-01-06T01:44:59;5.90;99.90
44767;DHT22;30487;48.716;9.272;2024-01-06T01:47:25;5.90;99.90
44767;DHT22;30487;48.716;9.272;2024-01-06T01:49:54;5.90;99.90
44767;DHT22;30487;48.716;9.272;2024-01-06T01:52:20;6.00;99.90
44767;DHT22;30487;48.716;9.272;2024-01-06T01:54:46;5.90;99.90
44767;DHT22;30487;48.716;9.272;2024-01-06T01:57:14;6.00;99.90
44767;DHT22;30487;48.716;9.272;2024-01-06T01:59:41;6.00;99.90
44767;DHT22;30487;48.716;9.272;2024-01-06T02:02:08;6.00;99.90
44767;DHT22;30487;48.716;9.272;2024-01-06T02:04:33;6.00;99.90
44767;DHT22;30487;48.716;9.272;2024-01-06T02:06:59;6.00;99.90
44767;DHT22;30487;48.716;9.272;2024-01-06T02:09:25;6.00;99.90
44767;DHT22;30487;48.716;9.272;2024-01-06T02:11:54;6.00;99.90
44767;DHT22;30487;48.716;9.272;2024-01-06T02:14:20;6.00;99.90
44767;DHT22;30487;48.716;9.272;2024-01-06T02:16:45;6.00;99.90
44767;DHT22;30487;48.716;9.272;2024-01-06T02:19:11;5.90;99.90
44767;DHT22;30487;48.716;9.272;2024-01-06T02:21:41;5.90;99.90
44767;DHT22;30487;48.716;9.272;2024-01-06T02:24:07;5.90;99.90
44767;DHT22;30487;48.716;9.272;2024-01-06T02:26:33;5.80;99.90
44767;DHT22;30487;48.716;9.272;2024-01-06T02:28:58;5.80;99.90
44767;DHT22;30487;48.716;9.272;2024-01-06T02:31:24;5.70;99.90
44767;DHT22;30487;48.716;9.272;2024-01-06T02:33:49;5.70;99.90
44767;DHT22;30487;48.716;9.272;2024-01-06T02:36:15;5.70;99.90
44767;DHT22;30487;48.716;9.272;2024-01-06T02:38:40;5.70;99.90
44767;DHT22;30487;48.716;9.272;2024-01-06T02:41:06;5.70;99.90
44767;DHT22;30487;48.716;9.272;2024-01-06T02:43:32;5.70;99.90
44767;DHT22;30487;48.716;9.272;2024-01-06T02:45:57;5.60;99.90
44767;DHT22;30487;48.716;9.272;2024-01-06T02:48:23;5.60;99.90
44767;DHT22;30487;48.716;9.272;2024-01-06T02:50:48;5.60;99.90
44767;DHT22;30487;48.716;9.272;2024-01-06T02:53:14;5.60;99.90
44767;DHT22;30487;48.716;9.272;2024-01-06T02:55:40;5.60;99.90
44767;DHT22;30487;48.716;9.272;2024-01-06T02:58:05;5.60;99.90
44767;DHT22;30487;48.716;9.272;2024-01-06T03:00:31;5.70;99.90
44767;DHT22;30487;48.716;9.272;2024-01-06T03:02:56;5.70;99.90
44767;DHT22;30487;48.716;9.272;2024-01-06T03:05:22;5.80;99.90
44767;DHT22;30487;48.716;9.272;2024-01-06T03:07:48;5.70;99.90
44767;DHT22;30487;48.716;9.272;2024-01-06T03:10:13;5.70;99.90
44767;DHT22;30487;48.716;9.272;2024-01-06T03:12:39;5.60;99.90
44767;DHT22;30487;48.716;9.272;2024-01-06T03:15:05;5.60;99.90
44767;DHT22;30487;48.716;9.272;2024-01-06T03:17:31;5.60;99.90
44767;DHT22;30487;48.716;9.272;2024-01-06T03:19:57;5.60;99.90
44767;DHT22;30487;48.716;9.272;2024-01-06T03:22:22;5.60;99.90
44767;DHT22;30487;48.716;9.272;2024-01-06T03:24:48;5.60;99.90
44767;DHT22;30487;48.716;9.272;2024-01-06T03:27:14;5.60;99.90
44767;DHT22;30487;48.716;9.272;2024-01-06T03:29:39;5.50;99.90
44767;DHT22;30487;48.716;9.272;2024-01-06T03:32:05;5.50;99.90
44767;DHT22;30487;48.716;9.272;2024-01-06T03:34:31;5.50;99.90
44767;DHT22;30487;48.716;9.272;2024-01-06T03:36:57;5.60;99.90
44767;DHT22;30487;48.716;9.272;2024-01-06T03:39:22;5.60;99.90
44767;DHT22;30487;48.716;9.272;2024-01-06T03:41:48;5.60;99.90
44767;DHT22;30487;48.716;9.272;2024-01-06T03:44:14;5.60;99.90
44767;DHT22;30487;48.716;9.272;2024-01-06T03:46:40;5.60;99.90
44767;DHT22;30487;48.716;9.272;2024-01-06T03:49:05;5.60;99.90
44767;DHT22;30487;48.716;9.272;2024-01-06T03:51:31;5.60;99.90
44767;DHT22;30487;48.716;9.272;2024-01-06T03:53:57;5.60;99.90
44767;DHT22;30487;48.716;9.272;2024-01-06T03:56:22;5.50;99.90
44767;DHT22;30487;48.716;9.272;2024-01-06T03:58:48;5.50;99.90
44767;DHT22;30487;48.716;9.272;2024-01-06T04:01:13;5.40;99.90
44767;DHT22;30487;48.716;9.272;2024-01-06T04:03:39;5.40;99.90
44767;DHT22;30487;48.716;9.272;2024-01-06T04:06:07;5.40;99.90
44767;DHT22;30487;48.716;9.272;2024-01-06T04:08:33;5.50;99.90
44767;DHT22;30487;48.716;9.272;2024-01-06T04:10:58;5.40;99.90
44767;DHT22;30487;48.716;9.272;2024-01-06T04:13:24;5.50;99.90
44767;DHT22;30487;48.716;9.272;2024-01-06T04:15:51;5.50;99.90
44767;DHT22;30487;48.716;9.272;2024-01-06T04:18:17;5.50;99.90
44767;DHT22;30487;48.716;9.272;2024-01-06T04:20:42;5.50;99.90
44767;DHT22;30487;48.716;9.272;2024-01-06T04:23:08;5.50;99.90
44767;DHT22;30487;48.716;9.272;2024-01-06T04:25:33;5.50;99.90
44767;DHT22;30487;48.716;9.272;2024-01-06T04:27:59;5.50;99.90
44767;DHT22;30487;48.716;9.272;2024-01-06T04:30:24;5.50;99.90
44767;DHT22;30487;48.716;9.272;2024-01-06T04:32:51;5.50;99.90
44767;DHT22;30487;48.716;9.272;2024-01-06T04:35:17;5.50;99.90
44767;DHT22;30487;48.716;9.272;2024-01-06T04:37:43;5.60;99.90
44767;DHT22;30487;48.716;9.272;2024-01-06T04:40:09;5.60;99.90
44767;DHT22;30487;48.716;9.272;2024-01-06T04:42:35;5.60;99.90
44767;DHT22;30487;48.716;9.272;2024-01-06T04:45:01;5.70;99.90
44767;DHT22;30487;48.716;9.272;2024-01-06T04:47:26;5.70;99.90
44767;DHT22;30487;48.716;9.272;2024-01-06T04:49:53;5.70;99.90
44767;DHT22;30487;48.716;9.272;2024-01-06T04:52:18;5.60;99.90
44767;DHT22;30487;48.716;9.272;2024-01-06T04:54:44;5.70;99.90
44767;DHT22;30487;48.716;9.272;2024-01-06T04:57:10;5.70;99.90
44767;DHT22;30487;48.716;9.272;2024-01-06T04:59:35;5.70;99.90
44767;DHT22;30487;48.716;9.272;2024-01-06T05:02:01;5.70;99.90
44767;DHT22;30487;48.716;9.272;2024-01-06T05:04:27;5.70;99.90
44767;DHT22;30487;48.716;9.272;2024-01-06T05:06:52;5.70;99.90
44767;DHT22;30487;48.716;9.272;2024-01-06T05:09:18;5.70;99.90
44767;DHT22;30487;48.716;9.272;2024-01-06T05:11:44;5.70;99.90
44767;DHT22;30487;48.716;9.272;2024-01-06T05:14:10;5.70;99.90
44767;DHT22;30487;48.716;9.272;2024-01-06T05:16:36;5.70;99.90
44767;DHT22;30487;48.716;9.272;2024-01-06T05:19:01;5.70;99.90
44767;DHT22;30487;48.716;9.272;2024-01-06T05:21:27;5.60;99.90
44767;DHT22;30487;48.716;9.272;2024-01-06T05:23:53;5.60;99.90
44767;DHT22;30487;48.716;9.272;2024-01-06T05:26:18;5.60;99.90
44767;DHT22;30487;48.716;9.272;2024-01-06T05:28:44;5.70;99.90
44767;DHT22;30487;48.716;9.272;2024-01-06T05:31:10;5.70;99.90
44767;DHT22;30487;48.716;9.272;2024-01-06T05:33:35;5.70;99.90
44767;DHT22;30487;48.716;9.272;2024-01-06T05:36:01;5.60;99.90
44767;DHT22;30487;48.716;9.272;2024-01-06T05:38:27;5.70;99.90
44767;DHT22;30487;48.716;9.272;2024-01-06T05:40:53;5.70;99.90
44767;DHT22;30487;48.716;9.272;2024-01-06T05:43:18;5.70;99.90
44767;DHT22;30487;48.716;9.272;2024-01-06T05:45:44;5.70;99.90
44767;DHT22;30487;48.716;9.272;2024-01-06T05:48:10;5.70;99.90
44767;DHT22;30487;48.716;9.272;2024-01-06T05:50:38;5.70;99.90
44767;DHT22;30487;48.716;9.272;2024-01-06T05:53:04;5.60;99.90
44767;DHT22;30487;48.716;9.272;2024-01-06T05:55:30;5.70;99.90
44767;DHT22;30487;48.716;9.272;2024-01-06T05:57:55;5.70;99.90
44767;DHT22;30487;48.716;9.272;2024-01-06T06:00:21;5.70;99.90
44767;DHT22;30487;48.716;9.272;2024-01-06T06:02:46;5.70;99.90
44767;DHT22;30487;48.716;9.272;2024-01-06T06:05:12;5.70;99.90
44767;DHT22;30487;48.716;9.272;2024-01-06T06:07:39;5.80;99.90
44767;DHT22;30487;48.716;9.272;2024-01-06T06:10:08;5.80;99.90
44767;DHT22;30487;48.716;9.272;2024-01-06T06:12:34;5.70;99.90
44767;DHT22;30487;48.716;9.272;2024-01-06T06:15:00;5.70;99.90
44767;DHT22;30487;48.716;9.272;2024-01-06T06:17:26;5.70;99.90
44767;DHT22;30487;48.716;9.272;2024-01-06T06:19:51;5.60;99.90
44767;DHT22;30487;48.716;9.272;2024-01-06T06:22:17;5.60;99.90
44767;DHT22;30487;48.716;9.272;2024-01-06T06:24:43;5.60;99.90
44767;DHT22;30487;48.716;9.272;2024-01-06T06:27:09;5.60;99.90
44767;DHT22;30487;48.716;9.272;2024-01-06T06:29:34;5.60;99.90
44767;DHT22;30487;48.716;9.272;2024-01-06T06:32:00;5.70;99.90
44767;DHT22;30487;48.716;9.272;2024-01-06T06:34:25;5.70;99.90
44767;DHT22;30487;48.716;9.272;2024-01-06T06:36:51;5.70;99.90
44767;DHT22;30487;48.716;9.272;2024-01-06T06:39:16;5.70;99.90
44767;DHT22;30487;48.716;9.272;2024-01-06T06:41:43;5.70;99.90
44767;DHT22;30487;48.716;9.272;2024-01-06T06:44:09;5.70;99.90
44767;DHT22;30487;48.716;9.272;2024-01-06T06:46:36;5.80;99.90
44767;DHT22;30487;48.716;9.272;2024-01-06T06:49:01;5.80;99.90
44767;DHT22;30487;48.716;9.272;2024-01-06T06:51:27;5.90;99.90
44767;DHT22;30487;48.716;9.272;2024-01-06T06:53:54;5.90;99.90
44767;DHT22;30487;48.716;9.272;2024-01-06T06:56:19;5.80;99.90
44767;DHT22;30487;48.716;9.272;2024-01-06T06:58:45;5.80;99.90
44767;DHT22;30487;48.716;9.272;2024-01-06T07:01:13;5.80;99.90
44767;DHT22;30487;48.716;9.272;2024-01-06T07:03:38;5.70;99.90
44767;DHT22;30487;48.716;9.272;2024-01-06T07:06:04;5.70;99.90
44767;DHT22;30487;48.716;9.272;2024-01-06T07:08:30;5.80;99.90
44767;DHT22;30487;48.716;9.272;2024-01-06T07:10:55;5.80;99.90
44767;DHT22;30487;48.716;9.272;2024-01-06T07:13:22;5.70;99.90
44767;DHT22;30487;48.716;9.272;2024-01-06T07:15:47;5.70;99.90
44767;DHT22;30487;48.716;9.272;2024-01-06T07:18:13;5.70;99.90
44767;DHT22;30487;48.716;9.272;2024-01-06T07:20:38;5.70;99.90
44767;DHT22;30487;48.716;9.272;2024-01-06T07:23:04;5.70;99.90
44767;DHT22;30487;48.716;9.272;2024-01-06T07:25:30;5.70;99.90
44767;DHT22;30487;48.716;9.272;2024-01-06T07:27:55;5.80;99.90
44767;DHT22;30487;48.716;9.272;2024-01-06T07:30:21;5.70;99.90
44767;DHT22;30487;48.716;9.272;2024-01-06T07:32:47;5.70;99.90
44767;DHT22;30487;48.716;9.272;2024-01-06T07:35:14;5.70;99.90
44767;DHT22;30487;48.716;9.272;2024-01-06T07:37:41;5.70;99.90
44767;DHT22;30487;48.716;9.272;2024-01-06T07:40:07;5.70;99.90
44767;DHT22;30487;48.716;9.272;2024-01-06T07:42:33;5.70;99.90
44767;DHT22;30487;48.716;9.272;2024-01-06T07:44:58;5.70;99.90
44767;DHT22;30487;48.716;9.272;2024-01-06T07:47:24;5.60;99.90
44767;DHT22;30487;48.716;9.272;2024-01-06T07:49:50;5.60;99.90
44767;DHT22;30487;48.716;9.272;2024-01-06T07:52:16;5.60;99.90
44767;DHT22;30487;48.716;9.272;2024-01-06T07:54:42;5.60;99.90
44767;DHT22;30487;48.716;9.272;2024-01-06T07:57:07;5.60;99.90
44767;DHT22;30487;48.716;9.272;2024-01-06T07:59:33;5.60;99.90
44767;DHT22;30487;48.716;9.272;2024-01-06T08:01:58;5.60;99.90
44767;DHT22;30487;48.716;9.272;2024-01-06T08:04:24;5.60;99.90
44767;DHT22;30487;48.716;9.272;2024-01-06T08:06:50;5.70;99.90
44767;DHT22;30487;48.716;9.272;2024-01-06T08:09:15;5.70;99.90
44767;DHT22;30487;48.716;9.272;2024-01-06T08:11:41;5.60;99.90
44767;DHT22;30487;48.716;9.272;2024-01-06T08:14:11;5.60;99.90
44767;DHT22;30487;48.716;9.272;2024-01-06T08:16:36;5.70;99.90
44767;DHT22;30487;48.716;9.272;2024-01-06T08:19:02;5.70;99.90
44767;DHT22;30487;48.716;9.272;2024-01-06T08:21:27;5.70;99.90
44767;DHT22;30487;48.716;9.272;2024-01-06T08:23:53;5.70;99.90
44767;DHT22;30487;48.716;9.272;2024-01-06T08:26:18;5.70;99.90
44767;DHT22;30487;48.716;9.272;2024-01-06T08:28:44;5.80;99.90
44767;DHT22;30487;48.716;9.272;2024-01-06T08:31:10;5.80;99.90
44767;DHT22;30487;48.716;9.272;2024-01-06T08:33:35;5.80;99.90
44767;DHT22;30487;48.716;9.272;2024-01-06T08:36:01;5.80;99.90
44767;DHT22;30487;48.716;9.272;2024-01-06T08:38:26;5.80;99.90
44767;DHT22;30487;48.716;9.272;2024-01-06T08:40:52;5.80;99.90
44767;DHT22;30487;48.716;9.272;2024-01-06T08:43:19;5.80;99.90
44767;DHT22;30487;48.716;9.272;2024-01-06T08:45:45;5.80;99.90
44767;DHT22;30487;48.716;9.272;2024-01-06T08:48:10;5.80;99.90
44767;DHT22;30487;48.716;9.272;2024-01-06T08:50:37;5.80;99.90
44767;DHT22;30487;48.716;9.272;2024-01-06T08:53:03;5.80;99.90
44767;DHT22;30487;48.716;9.272;2024-01-06T08:55:30;5.80;99.90
44767;DHT22;30487;48.716;9.272;2024-01-06T08:57:55;5.80;99.90
44767;DHT22;30487;48.716;9.272;2024-01-06T09:00:21;5.80;99.90
44767;DHT22;30487;48.716;9.272;2024-01-06T09:02:46;5.70;99.90
44767;DHT22;30487;48.716;9.272;2024-01-06T09:05:12;5.70;99.90
44767;DHT22;30487;48.716;9.272;2024-01-06T09:07:39;5.80;99.90
44767;DHT22;30487;48.716;9.272;2024-01-06T09:10:05;5.80;99.90
44767;DHT22;30487;48.716;9.272;2024-01-06T09:12:30;5.80;99.90
44767;DHT22;30487;48.716;9.272;2024-01-06T09:14:56;5.90;99.90
44767;DHT22;30487;48.716;9.272;2024-01-06T09:17:21;5.90;99.90
44767;DHT22;30487;48.716;9.272;2024-01-06T09:19:48;5.80;99.90
44767;DHT22;30487;48.716;9.272;2024-01-06T09:22:13;5.90;99.90
44767;DHT22;30487;48.716;9.272;2024-01-06T09:24:40;5.90;99.90
44767;DHT22;30487;48.716;9.272;2024-01-06T09:27:05;5.90;99.90
44767;DHT22;30487;48.716;9.272;2024-01-06T09:29:31;5.90;99.90
44767;DHT22;30487;48.716;9.272;2024-01-06T09:31:57;5.90;99.90
44767;DHT22;30487;48.716;9.272;2024-01-06T09:34:22;5.90;99.90
44767;DHT22;30487;48.716;9.272;2024-01-06T09:36:48;5.90;99.90
44767;DHT22;30487;48.716;9.272;2024-01-06T09:39:13;6.00;99.90
44767;DHT22;30487;48.716;9.272;2024-01-06T09:41:39;5.90;99.90
44767;DHT22;30487;48.716;9.272;2024-01-06T09:44:05;5.90;99.90
44767;DHT22;30487;48.716;9.272;2024-01-06T09:46:31;5.80;99.90
44767;DHT22;30487;48.716;9.272;2024-01-06T09:48:57;5.90;99.90
44767;DHT22;30487;48.716;9.272;2024-01-06T09:51:24;5.90;99.90
44767;DHT22;30487;48.716;9.272;2024-01-06T09:53:57;6.20;99.90
44767;DHT22;30487;48.716;9.272;2024-01-06T09:56:25;6.10;99.90
44767;DHT22;30487;48.716;9.272;2024-01-06T09:58:50;6.10;99.90
44767;DHT22;30487;48.716;9.272;2024-01-06T10:01:17;6.10;99.90
44767;DHT22;30487;48.716;9.272;2024-01-06T10:03:43;6.20;99.90
44767;DHT22;30487;48.716;9.272;2024-01-06T10:06:11;6.20;99.90
44767;DHT22;30487;48.716;9.272;2024-01-06T10:08:37;6.30;99.90
44767;DHT22;30487;48.716;9.272;2024-01-06T10:11:06;6.50;99.90
44767;DHT22;30487;48.716;9.272;2024-01-06T10:13:32;6.60;99.90
44767;DHT22;30487;48.716;9.272;2024-01-06T10:15:57;6.50;99.90
44767;DHT22;30487;48.716;9.272;2024-01-06T10:18:25;6.50;99.90
44767;DHT22;30487;48.716;9.272;2024-01-06T10:20:51;6.50;99.90
44767;DHT22;30487;48.716;9.272;2024-01-06T10:23:17;6.70;99.90
44767;DHT22;30487;48.716;9.272;2024-01-06T10:25:42;6.80;99.90
44767;DHT22;30487;48.716;9.272;2024-01-06T10:28:11;7.00;99.90
44767;DHT22;30487;48.716;9.272;2024-01-06T10:30:39;7.10;99.90
44767;DHT22;30487;48.716;9.272;2024-01-06T10:33:09;7.20;99.90
44767;DHT22;30487;48.716;9.272;2024-01-06T10:35:36;7.20;99.90
44767;DHT22;30487;48.716;9.272;2024-01-06T10:38:02;7.10;99.90
44767;DHT22;30487;48.716;9.272;2024-01-06T10:40:28;7.00;99.90
44767;DHT22;30487;48.716;9.272;2024-01-06T10:42:55;6.90;99.90
44767;DHT22;30487;48.716;9.272;2024-01-06T10:45:23;6.90;99.90
44767;DHT22;30487;48.716;9.272;2024-01-06T10:47:49;6.80;99.90
44767;DHT22;30487;48.716;9.272;2024-01-06T10:50:17;6.70;99.90
44767;DHT22;30487;48.716;9.272;2024-01-06T10:52:43;6.60;99.90
44767;DHT22;30487;48.716;9.272;2024-01-06T10:55:09;6.70;99.90
44767;DHT22;30487;48.716;9.272;2024-01-06T10:57:37;6.70;99.90
44767;DHT22;30487;48.716;9.272;2024-01-06T11:00:03;6.70;99.90
44767;DHT22;30487;48.716;9.272;2024-01-06T11:02:31;6.60;99.90
44767;DHT22;30487;48.716;9.272;2024-01-06T11:04:57;6.60;99.90
44767;DHT22;30487;48.716;9.272;2024-01-06T11:07:24;6.50;99.90
44767;DHT22;30487;48.716;9.272;2024-01-06T11:09:57;6.40;99.90
44767;DHT22;30487;48.716;9.272;2024-01-06T11:12:27;6.40;99.90
44767;DHT22;30487;48.716;9.272;2024-01-06T11:14:53;6.40;99.90
44767;DHT22;30487;48.716;9.272;2024-01-06T11:17:54;6.40;99.90
44767;DHT22;30487;48.716;9.272;2024-01-06T11:20:22;6.40;99.90
44767;DHT22;30487;48.716;9.272;2024-01-06T11:22:49;6.40;99.90
44767;DHT22;30487;48.716;9.272;2024-01-06T11:25:17;6.40;99.90
44767;DHT22;30487;48.716;9.272;2024-01-06T11:27:43;6.30;99.90
44767;DHT22;30487;48.716;9.272;2024-01-06T11:30:20;6.40;99.90
44767;DHT22;30487;48.716;9.272;2024-01-06T11:32:45;6.40;99.90
44767;DHT22;30487;48.716;9.272;2024-01-06T11:35:13;6.40;99.90
44767;DHT22;30487;48.716;9.272;2024-01-06T11:42:52;6.30;99.90
44767;DHT22;30487;48.716;9.272;2024-01-06T11:45:21;6.20;99.90
44767;DHT22;30487;48.716;9.272;2024-01-06T11:47:48;6.20;99.90
44767;DHT22;30487;48.716;9.272;2024-01-06T11:50:14;6.20;99.90
44767;DHT22;30487;48.716;9.272;2024-01-06T11:52:41;6.30;99.90
44767;DHT22;30487;48.716;9.272;2024-01-06T11:55:08;6.30;99.90
44767;DHT22;30487;48.716;9.272;2024-01-06T11:57:34;6.30;99.90
44767;DHT22;30487;48.716;9.272;2024-01-06T12:00:00;6.30;99.90
44767;DHT22;30487;48.716;9.272;2024-01-06T12:02:26;6.40;99.90
44767;DHT22;30487;48.716;9.272;2024-01-06T12:04:52;6.50;99.90
44767;DHT22;30487;48.716;9.272;2024-01-06T12:07:19;6.50;99.90
44767;DHT22;30487;48.716;9.272;2024-01-06T12:09:46;6.50;99.90
44767;DHT22;30487;48.716;9.272;2024-01-06T12:12:15;6.50;99.90
44767;DHT22;30487;48.716;9.272;2024-01-06T12:14:41;6.50;99.90
44767;DHT22;30487;48.716;9.272;2024-01-06T12:17:11;6.40;99.90
44767;DHT22;30487;48.716;9.272;2024-01-06T12:19:38;6.50;99.90
44767;DHT22;30487;48.716;9.272;2024-01-06T12:22:04;6.50;99.90
44767;DHT22;30487;48.716;9.272;2024-01-06T12:24:30;6.60;99.90
44767;DHT22;30487;48.716;9.272;2024-01-06T12:26:57;6.70;99.90
44767;DHT22;30487;48.716;9.272;2024-01-06T12:29:26;6.80;99.90
44767;DHT22;30487;48.716;9.272;2024-01-06T12:31:53;6.80;99.90
44767;DHT22;30487;48.716;9.272;2024-01-06T12:34:18;6.80;99.90
44767;DHT22;30487;48.716;9.272;2024-01-06T12:36:44;6.80;99.90
44767;DHT22;30487;48.716;9.272;2024-01-06T12:39:12;6.80;99.90
44767;DHT22;30487;48.716;9.272;2024-01-06T12:41:39;6.80;99.90
44767;DHT22;30487;48.716;9.272;2024-01-06T12:44:06;6.80;99.90
44767;DHT22;30487;48.716;9.272;2024-01-06T12:46:32;6.80;99.90
44767;DHT22;30487;48.716;9.272;2024-01-06T12:48:58;6.80;99.90
44767;DHT22;30487;48.716;9.272;2024-01-06T12:51:24;6.80;99.90
44767;DHT22;30487;48.716;9.272;2024-01-06T12:53:50;6.80;99.90
44767;DHT22;30487;48.716;9.272;2024-01-06T12:56:16;6.80;99.90
44767;DHT22;30487;48.716;9.272;2024-01-06T12:58:41;6.80;99.90
44767;DHT22;30487;48.716;9.272;2024-01-06T13:01:07;6.70;99.90
44767;DHT22;30487;48.716;9.272;2024-01-06T13:03:33;6.80;99.90
44767;DHT22;30487;48.716;9.272;2024-01-06T13:06:00;6.70;99.90
44767;DHT22;30487;48.716;9.272;2024-01-06T13:08:26;6.70;99.90
44767;DHT22;30487;48.716;9.272;2024-01-06T13:10:51;6.60;99.90
44767;DHT22;30487;48.716;9.272;2024-01-06T13:13:17;6.60;99.90
44767;DHT22;30487;48.716;9.272;2024-01-06T13:15:42;6.60;99.90
44767;DHT22;30487;48.716;9.272;2024-01-06T13:18:08;6.50;99.90
44767;DHT22;30487;48.716;9.272;2024-01-06T13:20:34;6.50;99.90
44767;DHT22;30487;48.716;9.272;2024-01-06T13:22:59;6.50;99.90
44767;DHT22;30487;48.716;9.272;2024-01-06T13:25:25;6.50;99.90
44767;DHT22;30487;48.716;9.272;2024-01-06T13:27:50;6.40;99.90
44767;DHT22;30487;48.716;9.272;2024-01-06T13:30:17;6.40;99.90
44767;DHT22;30487;48.716;9.272;2024-01-06T13:32:42;6.40;99.90
44767;DHT22;30487;48.716;9.272;2024-01-06T13:35:08;6.30;99.90
44767;DHT22;30487;48.716;9.272;2024-01-06T13:37:36;6.30;99.90
44767;DHT22;30487;48.716;9.272;2024-01-06T13:40:02;6.30;99.90
44767;DHT22;30487;48.716;9.272;2024-01-06T13:42:28;6.30;99.90
44767;DHT22;30487;48.716;9.272;2024-01-06T13:44:54;6.30;99.90
44767;DHT22;30487;48.716;9.272;2024-01-06T13:47:20;6.30;99.90
44767;DHT22;30487;48.716;9.272;2024-01-06T13:49:45;6.30;99.90
44767;DHT22;30487;48.716;9.272;2024-01-06T13:52:11;6.30;99.90
44767;DHT22;30487;48.716;9.272;2024-01-06T13:54:36;6.30;99.90
44767;DHT22;30487;48.716;9.272;2024-01-06T13:57:02;6.30;99.90
44767;DHT22;30487;48.716;9.272;2024-01-06T13:59:28;6.40;99.90
44767;DHT22;30487;48.716;9.272;2024-01-06T14:01:54;6.40;99.90
44767;DHT22;30487;48.716;9.272;2024-01-06T14:04:19;6.40;99.90
44767;DHT22;30487;48.716;9.272;2024-01-06T14:06:45;6.40;99.90
44767;DHT22;30487;48.716;9.272;2024-01-06T14:09:13;6.40;99.90
44767;DHT22;30487;48.716;9.272;2024-01-06T14:11:39;6.30;99.90
44767;DHT22;30487;48.716;9.272;2024-01-06T14:14:04;6.30;99.90
44767;DHT22;30487;48.716;9.272;2024-01-06T14:16:30;6.30;99.90
44767;DHT22;30487;48.716;9.272;2024-01-06T14:18:56;6.30;99.90
44767;DHT22;30487;48.716;9.272;2024-01-06T14:21:22;6.30;99.90
44767;DHT22;30487;48.716;9.272;2024-01-06T14:23:51;6.20;99.90
44767;DHT22;30487;48.716;9.272;2024-01-06T14:26:17;6.20;99.90
44767;DHT22;30487;48.716;9.272;2024-01-06T14:28:45;6.10;99.90
44767;DHT22;30487;48.716;9.272;2024-01-06T14:31:11;6.10;99.90
44767;DHT22;30487;48.716;9.272;2024-01-06T14:33:37;6.10;99.90
44767;DHT22;30487;48.716;9.272;2024-01-06T14:36:03;6.10;99.90
44767;DHT22;30487;48.716;9.272;2024-01-06T14:38:29;5.90;99.90
44767;DHT22;30487;48.716;9.272;2024-01-06T14:40:54;5.80;99.90
44767;DHT22;30487;48.716;9.272;2024-01-06T14:43:20;5.80;99.90
44767;DHT22;30487;48.716;9.272;2024-01-06T14:45:46;5.80;99.90
44767;DHT22;30487;48.716;9.272;2024-01-06T14:48:12;5.70;99.90
44767;DHT22;30487;48.716;9.272;2024-01-06T14:50:37;5.70;99.90
44767;DHT22;30487;48.716;9.272;2024-01-06T14:53:03;5.70;99.90
44767;DHT22;30487;48.716;9.272;2024-01-06T14:55:29;5.70;99.90
44767;DHT22;30487;48.716;9.272;2024-01-06T14:57:54;5.60;99.90
44767;DHT22;30487;48.716;9.272;2024-01-06T15:00:20;5.70;99.90
44767;DHT22;30487;48.716;9.272;2024-01-06T15:02:46;5.70;99.90
44767;DHT22;30487;48.716;9.272;2024-01-06T15:05:13;5.70;99.90
44767;DHT22;30487;48.716;9.272;2024-01-06T15:07:39;5.70;99.90
44767;DHT22;30487;48.716;9.272;2024-01-06T15:10:04;5.80;99.90
44767;DHT22;30487;48.716;9.272;2024-01-06T15:12:31;5.70;99.90
44767;DHT22;30487;48.716;9.272;2024-01-06T15:14:56;5.70;99.90
44767;DHT22;30487;48.716;9.272;2024-01-06T15:17:24;5.70;99.90
44767;DHT22;30487;48.716;9.272;2024-01-06T15:19:49;5.70;99.90
44767;DHT22;30487;48.716;9.272;2024-01-06T15:22:15;5.70;99.90
44767;DHT22;30487;48.716;9.272;2024-01-06T15:24:42;5.70;99.90
44767;DHT22;30487;48.716;9.272;2024-01-06T15:27:13;5.70;99.90
44767;DHT22;30487;48.716;9.272;2024-01-06T15:29:38;5.70;99.90
44767;DHT22;30487;48.716;9.272;2024-01-06T15:32:04;5.70;99.90
44767;DHT22;30487;48.716;9.272;2024-01-06T15:34:30;5.70;99.90
44767;DHT22;30487;48.716;9.272;2024-01-06T15:36:55;5.70;99.90
44767;DHT22;30487;48.716;9.272;2024-01-06T15:39:21;5.70;99.90
44767;DHT22;30487;48.716;9.272;2024-01-06T15:41:47;5.70;99.90